createdAt,value
2019-04-14T00:01:35.592Z,75.60
2019-04-14T00:04:18.272Z,75.70
2019-04-14T00:06:48.436Z,76.40
2019-04-14T00:09:20.559Z,77.50
2019-04-14T00:11:50.905Z,77.80
2019-04-14T00:14:20.860Z,78.00
2019-04-14T00:16:51.088Z,77.90
2019-04-14T00:19:21.701Z,78.00
2019-04-14T00:21:52.248Z,78.20
2019-04-14T00:24:22.797Z,78.70
2019-04-14T00:26:53.122Z,79.50
2019-04-14T00:29:23.875Z,80.20
2019-04-14T00:31:55.379Z,80.60
2019-04-14T00:34:50.904Z,82.10
2019-04-14T00:37:43.103Z,83.20
2019-04-14T00:40:21.816Z,85.20
2019-04-14T00:42:58.194Z,87.00
2019-04-14T00:45:43.394Z,87.90
2019-04-14T00:48:19.256Z,88.10
2019-04-14T00:50:47.775Z,87.00
2019-04-14T00:53:18.490Z,88.30
2019-04-14T00:55:48.993Z,88.60
2019-04-14T00:58:19.208Z,88.30
2019-04-14T01:00:50.075Z,89.40
2019-04-14T01:03:20.118Z,90.60
2019-04-14T01:05:50.394Z,91.00
2019-04-14T01:08:20.630Z,90.90
2019-04-14T01:10:50.457Z,90.80
2019-04-14T01:13:20.488Z,91.00
2019-04-14T01:15:58.740Z,91.10
2019-04-14T01:18:23.232Z,91.40
2019-04-14T01:20:53.639Z,91.50
2019-04-14T01:23:23.974Z,92.00
2019-04-14T01:25:54.260Z,92.30
2019-04-14T01:28:24.425Z,92.30
2019-04-14T01:30:54.510Z,92.50
2019-04-14T01:33:25.030Z,92.60
2019-04-14T01:35:55.330Z,92.60
2019-04-14T01:38:25.547Z,92.90
2019-04-14T01:40:55.569Z,93.50
2019-04-14T01:43:25.720Z,93.70
2019-04-14T01:46:05.131Z,94.00
2019-04-14T01:48:28.040Z,94.10
2019-04-14T01:51:20.262Z,94.70
2019-04-14T01:54:19.210Z,95.60
2019-04-14T01:57:20.686Z,95.70
2019-04-14T01:59:50.632Z,96.10
2019-04-14T02:02:23.055Z,96.50
2019-04-14T02:04:53.193Z,96.10
2019-04-14T02:07:23.411Z,95.80
2019-04-14T02:09:53.622Z,95.70
2019-04-14T02:12:23.861Z,95.70
2019-04-14T02:14:54.097Z,95.60
2019-04-14T02:17:24.341Z,96.20
2019-04-14T02:19:54.671Z,96.40
2019-04-14T02:22:24.632Z,96.70
2019-04-14T02:24:54.897Z,96.00
2019-04-14T02:27:25.351Z,95.30
2019-04-14T02:29:55.943Z,95.40
2019-04-14T02:32:57.238Z,95.00
2019-04-14T02:35:28.425Z,95.40
2019-04-14T02:38:02.260Z,95.60
2019-04-14T02:40:36.321Z,95.70
2019-04-14T02:42:54.157Z,95.60
2019-04-14T02:45:35.588Z,96.20
2019-04-14T02:50:30.090Z,96.40
2019-04-14T02:53:07.882Z,96.60
2019-04-14T02:55:42.250Z,97.10
2019-04-14T02:58:11.195Z,97.30
2019-04-14T03:00:41.233Z,98.20
2019-04-14T03:03:15.982Z,98.40
2019-04-14T03:06:01.556Z,99.00
2019-04-14T03:08:22.239Z,99.20
2019-04-14T03:10:47.976Z,99.20
2019-04-14T03:18:44.622Z,99.90
2019-04-14T03:21:30.643Z,99.90
2019-04-14T03:24:12.660Z,99.90
2019-04-14T03:29:21.327Z,99.90
2019-04-14T03:39:31.732Z,99.90
2019-04-14T03:42:00.712Z,99.90
2019-04-14T03:49:45.410Z,99.90
2019-04-14T03:54:30.131Z,99.90
2019-04-14T03:56:55.645Z,99.90
2019-04-14T03:59:26.170Z,99.90
2019-04-14T04:01:56.700Z,99.90
2019-04-14T04:04:27.472Z,99.90
2019-04-14T04:06:57.686Z,99.90
2019-04-14T04:09:32.484Z,99.90
2019-04-14T04:12:03.131Z,99.90
2019-04-14T04:14:33.516Z,99.90
2019-04-14T04:17:25.419Z,99.90
2019-04-14T04:20:26.645Z,99.90
2019-04-14T04:23:16.250Z,99.90
2019-04-14T04:26:14.681Z,99.90
2019-04-14T04:28:56.135Z,99.90
2019-04-14T04:32:03.560Z,99.90
2019-04-14T04:35:04.215Z,99.90
2019-04-14T04:37:56.382Z,99.90
2019-04-14T04:40:29.128Z,99.90
2019-04-14T04:42:59.133Z,99.90
2019-04-14T04:45:29.971Z,99.90
2019-04-14T04:48:00.282Z,99.90
2019-04-14T04:50:30.390Z,99.90
2019-04-14T04:53:00.484Z,99.90
2019-04-14T04:55:30.617Z,99.90
2019-04-14T04:58:01.357Z,99.90
2019-04-14T05:00:31.392Z,99.90
2019-04-14T05:03:01.530Z,99.90
2019-04-14T05:06:07.079Z,99.90
2019-04-14T05:08:39.138Z,99.90
2019-04-14T05:11:29.414Z,99.90
2019-04-14T05:14:02.270Z,99.90
2019-04-14T05:16:32.482Z,99.90
2019-04-14T05:19:16.211Z,99.90
2019-04-14T05:21:34.305Z,99.90
2019-04-14T05:24:04.945Z,99.90
2019-04-14T05:26:35.162Z,99.90
2019-04-14T05:29:05.704Z,99.90
2019-04-14T05:31:36.060Z,99.90
2019-04-14T05:34:06.524Z,99.90
2019-04-14T05:36:36.788Z,99.90
2019-04-14T05:39:08.871Z,99.90
2019-04-14T05:41:40.865Z,99.90
2019-04-14T05:44:10.709Z,99.90
2019-04-14T05:46:40.817Z,99.90
2019-04-14T05:49:18.678Z,99.90
2019-04-14T05:51:43.669Z,99.90
2019-04-14T05:54:14.201Z,99.90
2019-04-14T05:56:44.833Z,99.90
2019-04-14T05:59:15.751Z,99.90
2019-04-14T06:01:46.517Z,99.90
2019-04-14T06:04:16.797Z,99.90
2019-04-14T06:06:47.510Z,99.90
2019-04-14T06:09:17.452Z,99.90
2019-04-14T06:11:47.409Z,99.90
2019-04-14T06:14:17.546Z,99.90
2019-04-14T06:16:47.447Z,99.90
2019-04-14T06:19:17.499Z,99.90
2019-04-14T06:21:47.606Z,99.90
2019-04-14T06:24:17.525Z,99.90
2019-04-14T06:26:47.568Z,99.90
2019-04-14T06:29:17.715Z,99.90
2019-04-14T06:32:15.707Z,99.90
2019-04-14T06:35:10.848Z,99.90
2019-04-14T06:37:46.693Z,99.90
2019-04-14T06:40:16.486Z,99.90
2019-04-14T06:42:46.523Z,99.90
2019-04-14T06:45:16.404Z,99.90
2019-04-14T06:47:46.564Z,99.90
2019-04-14T06:50:16.596Z,99.90
2019-04-14T06:52:46.563Z,99.90
2019-04-14T06:55:16.428Z,99.90
2019-04-14T06:57:46.615Z,99.90
2019-04-14T07:00:16.648Z,99.90
2019-04-14T07:02:48.034Z,99.90
2019-04-14T07:05:18.076Z,99.90
2019-04-14T07:07:56.834Z,99.90
2019-04-14T07:10:20.082Z,99.90
2019-04-14T07:12:50.222Z,99.90
2019-04-14T07:15:20.108Z,99.90
2019-04-14T07:17:50.149Z,99.90
2019-04-14T07:20:20.248Z,99.90
2019-04-14T07:22:50.150Z,99.90
2019-04-14T07:25:20.265Z,99.90
2019-04-14T07:27:50.296Z,99.90
2019-04-14T07:30:42.227Z,99.90
2019-04-14T07:33:20.502Z,99.90
2019-04-14T07:35:58.342Z,99.90
2019-04-14T07:38:46.889Z,99.90
2019-04-14T07:41:31.753Z,99.90
2019-04-14T07:44:20.612Z,99.90
2019-04-14T07:46:57.405Z,99.90
2019-04-14T07:49:39.807Z,99.90
2019-04-14T07:52:25.999Z,99.90
2019-04-14T07:55:03.585Z,99.90
2019-04-14T07:58:04.748Z,99.90
2019-04-14T08:01:02.435Z,99.90
2019-04-14T08:03:48.796Z,99.90
2019-04-14T08:06:18.791Z,99.90
2019-04-14T08:08:48.826Z,99.90
2019-04-14T08:11:18.850Z,99.90
2019-04-14T08:13:48.874Z,99.90
2019-04-14T08:16:19.189Z,99.90
2019-04-14T08:18:49.111Z,99.90
2019-04-14T08:21:18.813Z,99.90
2019-04-14T08:23:49.012Z,99.90
2019-04-14T08:26:19.082Z,99.90
2019-04-14T08:28:49.415Z,99.90
2019-04-14T08:31:19.628Z,99.90
2019-04-14T08:33:49.700Z,99.90
2019-04-14T08:36:19.820Z,99.90
2019-04-14T08:38:49.774Z,99.90
2019-04-14T08:41:20.137Z,99.90
2019-04-14T08:44:15.487Z,99.90
2019-04-14T08:47:13.144Z,99.90
2019-04-14T08:50:00.260Z,99.90
2019-04-14T08:52:35.294Z,99.90
2019-04-14T08:55:17.292Z,99.90
2019-04-14T08:58:14.940Z,99.90
2019-04-14T09:01:22.245Z,99.90
2019-04-14T09:04:19.720Z,99.90
2019-04-14T09:06:54.346Z,99.90
2019-04-14T09:09:30.076Z,99.90
2019-04-14T09:12:15.721Z,99.90
2019-04-14T09:14:55.921Z,99.90
2019-04-14T09:17:15.749Z,99.90
2019-04-14T09:19:46.207Z,99.90
2019-04-14T09:22:16.279Z,99.90
2019-04-14T09:24:46.236Z,99.90
2019-04-14T09:27:16.033Z,99.90
2019-04-14T09:29:46.242Z,99.90
2019-04-14T09:32:16.504Z,99.90
2019-04-14T09:34:46.550Z,99.90
2019-04-14T09:37:16.429Z,99.90
2019-04-14T09:39:46.584Z,97.90
2019-04-14T09:42:16.566Z,98.10
2019-04-14T09:44:46.676Z,98.90
2019-04-14T09:47:16.751Z,98.90
2019-04-14T09:49:46.812Z,98.20
2019-04-14T09:52:16.963Z,99.20
2019-04-14T09:54:47.074Z,98.80
2019-04-14T09:57:17.075Z,99.20
2019-04-14T09:59:46.906Z,99.20
2019-04-14T10:02:16.886Z,97.40
2019-04-14T10:04:47.146Z,97.00
2019-04-14T10:07:17.135Z,96.80
2019-04-14T10:09:47.406Z,95.90
2019-04-14T10:12:17.495Z,96.20
2019-04-14T10:14:47.555Z,99.90
2019-04-14T10:17:17.950Z,99.90
2019-04-14T10:19:47.789Z,99.30
2019-04-14T10:22:18.092Z,93.00
2019-04-14T10:24:48.210Z,88.60
2019-04-14T10:27:18.091Z,82.50
2019-04-14T10:29:48.087Z,79.90
2019-04-14T10:32:18.172Z,80.30
2019-04-14T10:34:48.132Z,81.50
2019-04-14T10:37:18.166Z,82.10
2019-04-14T10:39:47.980Z,86.00
2019-04-14T10:42:17.887Z,86.90
2019-04-14T10:44:47.964Z,91.30
2019-04-14T10:47:18.006Z,90.70
2019-04-14T10:49:48.356Z,83.80
2019-04-14T10:52:21.645Z,78.00
2019-04-14T10:54:51.783Z,75.00
2019-04-14T10:57:21.594Z,72.90
2019-04-14T10:59:51.895Z,70.90
2019-04-14T11:02:21.913Z,69.70
2019-04-14T11:04:51.930Z,68.60
2019-04-14T11:07:27.775Z,66.30
2019-04-14T11:09:57.929Z,67.30
2019-04-14T11:12:27.902Z,70.40
2019-04-14T11:14:57.925Z,70.40
2019-04-14T11:17:27.737Z,68.60
2019-04-14T11:19:57.871Z,67.00
2019-04-14T11:22:27.785Z,66.90
2019-04-14T11:24:57.935Z,69.20
2019-04-14T11:27:27.966Z,67.80
2019-04-14T11:29:58.133Z,68.60
2019-04-14T11:32:43.530Z,70.70
2019-04-14T11:35:20.186Z,70.10
2019-04-14T11:38:15.115Z,70.50
2019-04-14T11:40:47.991Z,71.00
2019-04-14T11:43:18.199Z,72.90
2019-04-14T11:45:48.318Z,73.90
2019-04-14T11:48:18.733Z,74.80
2019-04-14T11:50:48.630Z,73.90
2019-04-14T11:53:18.772Z,74.10
2019-04-14T11:55:48.650Z,74.10
2019-04-14T11:58:19.006Z,73.20
2019-04-14T12:01:10.732Z,72.60
2019-04-14T12:03:58.215Z,73.50
2019-04-14T12:07:05.757Z,73.90
2019-04-14T12:09:49.185Z,74.10
2019-04-14T12:12:19.284Z,74.80
2019-04-14T12:14:49.380Z,75.40
2019-04-14T12:17:19.494Z,77.00
2019-04-14T12:19:49.539Z,76.60
2019-04-14T12:22:19.486Z,75.60
2019-04-14T12:24:49.375Z,75.00
2019-04-14T12:27:19.525Z,76.40
2019-04-14T12:29:50.084Z,77.40
2019-04-14T12:32:20.415Z,78.00
2019-04-14T12:34:50.516Z,78.20
2019-04-14T12:37:20.400Z,79.60
2019-04-14T12:39:50.529Z,77.30
2019-04-14T12:42:35.982Z,74.50
2019-04-14T12:45:29.451Z,73.30
2019-04-14T12:48:17.191Z,74.20
2019-04-14T12:50:51.417Z,74.90
2019-04-14T12:53:21.715Z,75.30
2019-04-14T12:55:51.757Z,75.00
2019-04-14T12:58:27.611Z,74.80
2019-04-14T13:01:01.861Z,73.70
2019-04-14T13:03:34.352Z,72.90
2019-04-14T13:06:04.401Z,73.40
2019-04-14T13:08:34.418Z,74.40
2019-04-14T13:11:05.149Z,74.80
2019-04-14T13:13:35.295Z,73.30
2019-04-14T13:16:05.299Z,73.00
2019-04-14T13:18:35.506Z,74.00
2019-04-14T13:21:05.558Z,73.40
2019-04-14T13:23:35.759Z,73.70
2019-04-14T13:26:05.867Z,73.70
2019-04-14T13:28:35.879Z,74.90
2019-04-14T13:31:06.095Z,74.30
2019-04-14T13:33:36.015Z,74.80
2019-04-14T13:36:06.232Z,75.00
2019-04-14T13:38:36.360Z,74.70
2019-04-14T13:41:06.765Z,74.80
2019-04-14T13:43:36.903Z,75.90
2019-04-14T13:46:06.920Z,76.00
2019-04-14T13:48:37.257Z,75.00
2019-04-14T13:51:07.183Z,76.30
2019-04-14T13:53:37.302Z,76.50
2019-04-14T13:56:07.497Z,77.50
2019-04-14T13:58:40.635Z,77.20
2019-04-14T14:01:09.363Z,78.10
2019-04-14T14:03:39.377Z,79.80
2019-04-14T14:06:09.529Z,81.40
2019-04-14T14:08:39.746Z,80.40
2019-04-14T14:11:34.733Z,80.50
2019-04-14T14:14:10.580Z,80.90
2019-04-14T14:17:00.817Z,83.10
2019-04-14T14:19:39.288Z,85.20
2019-04-14T14:22:31.214Z,86.60
2019-04-14T14:25:08.405Z,89.40
2019-04-14T14:27:38.565Z,90.50
2019-04-14T14:30:09.551Z,91.20
2019-04-14T14:32:39.590Z,92.40
2019-04-14T14:35:09.975Z,93.70
2019-04-14T14:37:40.009Z,93.90
2019-04-14T14:40:10.670Z,95.00
2019-04-14T14:42:40.775Z,96.10
2019-04-14T14:45:35.874Z,99.00
2019-04-14T14:48:23.501Z,93.60
2019-04-14T14:51:12.465Z,93.10
2019-04-14T14:53:42.676Z,94.00
2019-04-14T14:56:12.631Z,95.00
2019-04-14T14:58:45.240Z,94.00
2019-04-14T15:01:14.477Z,94.30
2019-04-14T15:03:44.485Z,95.10
2019-04-14T15:06:14.462Z,95.70
2019-04-14T15:08:44.506Z,96.70
2019-04-14T15:11:14.248Z,97.10
2019-04-14T15:13:44.468Z,97.40
2019-04-14T15:16:14.473Z,97.20
2019-04-14T15:18:44.508Z,97.20
2019-04-14T15:21:14.485Z,97.50
2019-04-14T15:23:44.432Z,97.70
2019-04-14T15:26:14.442Z,99.90
2019-04-14T15:28:44.433Z,99.90
2019-04-14T15:31:15.546Z,94.00
2019-04-14T15:33:45.605Z,93.80
2019-04-14T15:36:15.891Z,94.50
2019-04-14T15:38:45.772Z,95.40
2019-04-14T15:41:15.838Z,95.90
2019-04-14T15:43:46.172Z,96.30
2019-04-14T15:46:16.409Z,98.00
2019-04-14T15:48:46.431Z,98.70
2019-04-14T15:51:16.431Z,99.90
2019-04-14T15:53:46.402Z,99.90
2019-04-14T15:56:26.831Z,95.30
2019-04-14T15:59:02.470Z,95.50
2019-04-14T16:01:51.936Z,97.20
2019-04-14T16:04:38.029Z,97.70
2019-04-14T16:07:25.458Z,98.60
2019-04-14T16:10:20.355Z,99.80
2019-04-14T16:13:02.972Z,99.90
2019-04-14T16:15:45.585Z,99.90
2019-04-14T16:18:33.415Z,99.90
2019-04-14T16:21:03.500Z,99.90
2019-04-14T16:23:33.583Z,99.90
2019-04-14T16:26:25.374Z,99.90
2019-04-14T16:29:02.510Z,99.90
2019-04-14T16:31:54.291Z,99.90
2019-04-14T16:34:30.557Z,99.90
2019-04-14T16:37:00.715Z,99.90
2019-04-14T16:39:31.019Z,99.90
2019-04-14T16:42:00.988Z,99.90
2019-04-14T16:44:31.050Z,99.90
2019-04-14T16:47:01.147Z,99.90
2019-04-14T16:49:31.181Z,99.90
2019-04-14T16:52:06.068Z,99.90
2019-04-14T16:54:42.009Z,99.90
2019-04-14T16:57:29.795Z,99.90
2019-04-14T16:59:59.713Z,99.90
2019-04-14T17:02:29.614Z,99.90
2019-04-14T17:04:59.490Z,99.90
2019-04-14T17:07:29.466Z,99.90
2019-04-14T17:09:59.655Z,99.90
2019-04-14T17:12:29.670Z,99.90
2019-04-14T17:15:06.548Z,99.90
2019-04-14T17:17:56.470Z,99.90
2019-04-14T17:20:44.368Z,99.90
2019-04-14T17:23:29.333Z,99.90
2019-04-14T17:26:07.346Z,99.90
2019-04-14T17:28:59.371Z,99.90
2019-04-14T17:31:51.754Z,99.90
2019-04-14T17:34:36.225Z,99.90
2019-04-14T17:37:31.376Z,99.90
2019-04-14T17:40:10.711Z,99.90
2019-04-14T17:42:55.265Z,99.90
2019-04-14T17:45:40.240Z,99.90
2019-04-14T17:48:41.487Z,99.90
2019-04-14T17:51:20.106Z,99.90
2019-04-14T17:53:59.232Z,99.90
2019-04-14T17:56:48.132Z,99.90
2019-04-14T17:59:26.507Z,99.90
2019-04-14T18:02:18.333Z,99.90
2019-04-14T18:05:05.132Z,99.90
2019-04-14T18:07:40.345Z,99.90
2019-04-14T18:10:27.188Z,99.90
2019-04-14T18:13:19.221Z,99.90
2019-04-14T18:16:03.882Z,99.90
2019-04-14T18:19:10.866Z,99.90
2019-04-14T18:21:40.868Z,99.90
2019-04-14T18:24:10.914Z,99.90
2019-04-14T18:26:41.011Z,99.90
2019-04-14T18:29:48.507Z,99.90
2019-04-14T18:32:23.240Z,99.90
2019-04-14T18:35:10.971Z,99.90
2019-04-14T18:38:15.085Z,99.90
2019-04-14T18:41:04.379Z,99.90
2019-04-14T18:43:48.006Z,99.90
2019-04-14T18:46:38.075Z,99.90
2019-04-14T18:49:25.681Z,99.90
2019-04-14T18:52:13.230Z,99.90
2019-04-14T18:54:54.823Z,99.90
2019-04-14T18:57:42.762Z,99.90
2019-04-14T19:00:18.199Z,99.90
2019-04-14T19:02:48.238Z,99.90
2019-04-14T19:05:18.214Z,99.90
2019-04-14T19:07:48.196Z,99.90
2019-04-14T19:10:18.295Z,99.90
2019-04-14T19:13:05.791Z,99.90
2019-04-14T19:15:40.283Z,99.90
2019-04-14T19:18:29.276Z,99.90
2019-04-14T19:21:07.999Z,99.90
2019-04-14T19:23:37.745Z,99.90
2019-04-14T19:26:07.725Z,99.90
2019-04-14T19:28:38.478Z,99.90
2019-04-14T19:31:08.397Z,99.90
2019-04-14T19:33:39.019Z,99.90
2019-04-14T19:36:09.232Z,99.90
2019-04-14T19:38:39.113Z,99.90
2019-04-14T19:41:09.280Z,99.90
2019-04-14T19:43:39.406Z,99.90
2019-04-14T19:46:09.389Z,99.90
2019-04-14T19:48:39.543Z,99.90
2019-04-14T19:51:09.537Z,99.90
2019-04-14T19:53:39.747Z,99.90
2019-04-14T19:56:09.788Z,99.90
2019-04-14T19:58:39.747Z,99.90
2019-04-14T20:01:10.022Z,99.90
2019-04-14T20:03:40.024Z,99.90
2019-04-14T20:06:10.135Z,99.90
2019-04-14T20:08:40.155Z,99.90
2019-04-14T20:11:10.274Z,99.90
2019-04-14T20:13:44.033Z,99.90
2019-04-14T20:16:35.798Z,99.90
2019-04-14T20:19:27.545Z,99.90
2019-04-14T20:22:12.891Z,99.90
2019-04-14T20:25:01.859Z,99.90
2019-04-14T20:28:05.889Z,99.90
2019-04-14T20:30:39.598Z,99.90
2019-04-14T20:33:12.169Z,99.90
2019-04-14T20:35:42.187Z,99.90
2019-04-14T20:38:11.849Z,99.90
2019-04-14T20:40:41.565Z,99.90
2019-04-14T20:43:11.580Z,99.90
2019-04-14T20:45:41.247Z,99.90
2019-04-14T20:48:11.045Z,99.90
2019-04-14T20:50:41.039Z,99.90
2019-04-14T20:53:11.266Z,99.90
2019-04-14T20:55:47.266Z,99.90
2019-04-14T20:58:13.151Z,99.90
2019-04-14T21:00:43.200Z,99.90
2019-04-14T21:03:29.962Z,99.90
2019-04-14T21:06:11.220Z,99.90
2019-04-14T21:08:58.881Z,99.90
2019-04-14T21:11:37.593Z,99.90
2019-04-14T21:14:38.533Z,99.90
2019-04-14T21:17:17.869Z,99.90
2019-04-14T21:20:08.981Z,99.90
2019-04-14T21:22:43.712Z,99.90
2019-04-14T21:25:31.336Z,99.90
2019-04-14T21:28:32.379Z,99.90
2019-04-14T21:31:15.779Z,99.90
2019-04-14T21:33:56.169Z,99.90
2019-04-14T21:36:42.572Z,99.90
2019-04-14T21:39:40.581Z,99.90
2019-04-14T21:42:10.135Z,99.90
2019-04-14T21:44:40.040Z,99.90
2019-04-14T21:47:10.030Z,99.90
2019-04-14T21:49:40.180Z,99.90
2019-04-14T21:52:23.516Z,99.90
2019-04-14T21:54:53.404Z,99.90
2019-04-14T21:57:38.416Z,99.90
2019-04-14T22:00:35.571Z,99.90
2019-04-14T22:03:24.625Z,99.90
2019-04-14T22:06:13.590Z,99.90
2019-04-14T22:08:48.023Z,99.90
2019-04-14T22:11:25.983Z,99.90
2019-04-14T22:13:56.230Z,99.90
2019-04-14T22:16:27.932Z,99.90
2019-04-14T22:18:57.981Z,99.90
2019-04-14T22:21:27.901Z,99.90
2019-04-14T22:24:01.690Z,99.90
2019-04-14T22:26:29.500Z,99.90
2019-04-14T22:29:02.183Z,99.90
2019-04-14T22:31:31.147Z,99.90
2019-04-14T22:34:01.288Z,99.90
2019-04-14T22:36:31.264Z,99.90
2019-04-14T22:39:01.225Z,99.90
2019-04-14T22:41:31.346Z,99.90
2019-04-14T22:44:01.842Z,99.90
2019-04-14T22:46:32.077Z,99.90
2019-04-14T22:49:01.961Z,99.90
2019-04-14T22:51:32.029Z,99.90
2019-04-14T22:54:01.885Z,99.90
2019-04-14T22:56:39.039Z,99.90
2019-04-14T22:59:03.330Z,99.90
2019-04-14T23:01:34.971Z,99.90
2019-04-14T23:04:25.371Z,99.90
2019-04-14T23:07:25.356Z,99.90
2019-04-14T23:10:12.985Z,99.90
2019-04-14T23:13:00.921Z,99.90
2019-04-14T23:15:39.105Z,99.90
2019-04-14T23:18:26.551Z,99.90
2019-04-14T23:21:04.555Z,99.90
2019-04-14T23:23:53.514Z,99.90
2019-04-14T23:26:23.643Z,99.90
2019-04-14T23:28:53.562Z,99.90
2019-04-14T23:31:23.556Z,99.90
2019-04-14T23:33:53.359Z,99.90
2019-04-14T23:36:23.285Z,99.90
2019-04-14T23:38:53.389Z,99.90
2019-04-14T23:41:23.280Z,99.90
2019-04-14T23:43:53.336Z,99.90
2019-04-14T23:46:23.329Z,99.90
2019-04-14T23:48:53.267Z,99.90
2019-04-14T23:51:23.370Z,99.90
2019-04-14T23:53:53.323Z,99.90
2019-04-14T23:56:23.409Z,99.90
2019-04-14T23:58:53.335Z,99.90
